createdAt,value
2023-02-27T00:00:57.057Z,6.65
2023-02-27T00:03:24.442Z,6.07
2023-02-27T00:05:51.382Z,6.75
2023-02-27T00:08:18.682Z,6.72
2023-02-27T00:10:45.730Z,6.28
2023-02-27T00:13:12.770Z,6.90
2023-02-27T00:15:41.235Z,6.70
2023-02-27T00:18:18.017Z,6.25
2023-02-27T00:20:48.950Z,7.15
2023-02-27T00:23:16.088Z,6.75
2023-02-27T00:25:43.165Z,7.25
2023-02-27T00:28:10.079Z,6.90
2023-02-27T00:30:37.041Z,6.65
2023-02-27T00:33:05.071Z,6.90
2023-02-27T00:35:33.569Z,7.25
2023-02-27T00:38:00.642Z,6.63
2023-02-27T00:40:27.571Z,6.90
2023-02-27T00:42:54.560Z,6.93
2023-02-27T00:45:21.522Z,7.18
2023-02-27T00:47:49.630Z,7.15
2023-02-27T00:50:16.800Z,8.18
2023-02-27T00:52:44.003Z,8.45
2023-02-27T00:55:11.067Z,7.60
2023-02-27T00:57:39.431Z,7.90
2023-02-27T01:00:10.772Z,7.80
2023-02-27T01:02:38.012Z,7.68
2023-02-27T01:05:05.366Z,8.60
2023-02-27T01:07:32.865Z,7.72
2023-02-27T01:10:02.127Z,8.85
2023-02-27T01:12:29.204Z,8.68
2023-02-27T01:14:56.188Z,8.05
2023-02-27T01:17:23.178Z,8.55
2023-02-27T01:19:50.077Z,9.00
2023-02-27T01:22:16.992Z,8.73
2023-02-27T01:24:43.832Z,8.55
2023-02-27T01:27:10.810Z,8.15
2023-02-27T01:29:37.792Z,9.95
2023-02-27T01:32:04.853Z,8.85
2023-02-27T01:34:34.116Z,7.55
2023-02-27T01:39:29.499Z,8.35
2023-02-27T01:41:56.447Z,8.32
2023-02-27T01:44:27.186Z,8.48
2023-02-27T01:46:54.011Z,8.77
2023-02-27T01:49:28.429Z,7.63
2023-02-27T01:52:07.676Z,7.93
2023-02-27T01:54:40.741Z,7.60
2023-02-27T01:57:09.872Z,7.47
2023-02-27T01:59:40.327Z,7.65
2023-02-27T02:02:17.491Z,8.57
2023-02-27T02:04:44.537Z,7.97
2023-02-27T02:07:15.501Z,7.38
2023-02-27T02:09:47.234Z,7.80
2023-02-27T02:12:16.333Z,9.82
2023-02-27T02:14:43.967Z,8.07
2023-02-27T02:17:44.152Z,7.03
2023-02-27T02:20:41.641Z,7.85
2023-02-27T02:23:26.875Z,7.95
2023-02-27T02:26:24.984Z,7.25
2023-02-27T02:29:25.485Z,7.35
2023-02-27T02:34:43.281Z,7.93
2023-02-27T02:37:44.930Z,7.80
2023-02-27T02:40:16.958Z,7.00
2023-02-27T02:43:06.319Z,7.72
2023-02-27T02:46:14.964Z,7.25
2023-02-27T02:48:54.642Z,7.63
2023-02-27T02:51:55.731Z,8.98
2023-02-27T02:54:34.084Z,7.85
2023-02-27T02:57:16.338Z,7.60
2023-02-27T02:59:46.484Z,7.60
2023-02-27T03:02:18.808Z,8.88
2023-02-27T03:05:02.326Z,8.10
2023-02-27T03:07:40.304Z,8.32
2023-02-27T03:10:48.488Z,8.18
2023-02-27T03:13:27.763Z,7.85
2023-02-27T03:16:06.488Z,7.50
2023-02-27T03:18:54.136Z,8.80
2023-02-27T03:21:34.492Z,7.90
2023-02-27T03:24:06.607Z,8.50
2023-02-27T03:26:41.468Z,8.07
2023-02-27T03:29:12.355Z,8.02
2023-02-27T03:31:47.915Z,8.43
2023-02-27T03:34:19.790Z,8.68
2023-02-27T03:36:49.742Z,7.97
2023-02-27T03:39:45.629Z,8.07
2023-02-27T03:42:15.989Z,9.02
2023-02-27T03:45:30.022Z,8.20
2023-02-27T03:47:57.331Z,8.82
2023-02-27T03:50:25.037Z,7.82
2023-02-27T03:52:52.414Z,9.07
2023-02-27T03:55:30.509Z,8.32
2023-02-27T03:57:57.702Z,8.05
2023-02-27T04:00:26.210Z,8.25
2023-02-27T04:02:56.182Z,7.80
2023-02-27T04:05:28.966Z,7.95
2023-02-27T04:08:15.751Z,8.35
2023-02-27T04:11:07.058Z,8.30
2023-02-27T04:13:44.361Z,8.00
2023-02-27T04:16:38.514Z,8.50
2023-02-27T04:19:32.961Z,8.43
2023-02-27T04:22:11.082Z,8.25
2023-02-27T04:25:15.948Z,8.48
2023-02-27T04:28:19.382Z,8.15
2023-02-27T04:30:49.012Z,9.05
2023-02-27T04:33:18.892Z,8.32
2023-02-27T04:36:17.979Z,8.77
2023-02-27T04:38:51.933Z,8.30
2023-02-27T04:41:28.360Z,8.20
2023-02-27T04:43:56.886Z,7.95
2023-02-27T04:46:28.135Z,8.27
2023-02-27T04:49:04.381Z,7.68
2023-02-27T04:51:42.753Z,7.38
2023-02-27T04:54:17.903Z,8.13
2023-02-27T04:56:49.707Z,7.85
2023-02-27T04:59:26.136Z,8.07
2023-02-27T05:02:04.671Z,7.93
2023-02-27T05:04:35.737Z,8.05
2023-02-27T05:07:05.869Z,8.65
2023-02-27T05:10:25.116Z,7.85
2023-02-27T05:12:58.414Z,8.13
2023-02-27T05:15:35.813Z,8.27
2023-02-27T05:18:17.141Z,8.75
2023-02-27T05:21:41.665Z,8.20
2023-02-27T05:24:21.428Z,7.72
2023-02-27T05:27:02.963Z,7.95
2023-02-27T05:29:41.747Z,7.60
2023-02-27T05:32:15.072Z,9.52
2023-02-27T05:34:52.462Z,7.55
2023-02-27T05:37:48.188Z,8.10
2023-02-27T05:40:31.374Z,8.05
2023-02-27T05:43:06.624Z,8.57
2023-02-27T05:45:37.032Z,8.68
2023-02-27T05:50:39.270Z,9.20
2023-02-27T05:53:14.267Z,7.93
2023-02-27T05:55:56.776Z,8.63
2023-02-27T05:59:23.097Z,9.45
2023-02-27T06:01:50.052Z,8.88
2023-02-27T06:04:16.913Z,9.00
2023-02-27T06:06:45.229Z,9.57
2023-02-27T06:09:12.070Z,8.85
2023-02-27T06:11:38.866Z,8.90
2023-02-27T06:14:05.837Z,9.43
2023-02-27T06:16:32.955Z,8.48
2023-02-27T06:18:59.982Z,9.60
2023-02-27T06:21:26.938Z,9.30
2023-02-27T06:23:53.811Z,9.68
2023-02-27T06:26:20.696Z,9.18
2023-02-27T06:28:47.735Z,9.73
2023-02-27T06:31:14.613Z,9.15
2023-02-27T06:33:41.507Z,9.18
2023-02-27T06:36:08.429Z,9.95
2023-02-27T06:38:35.255Z,9.82
2023-02-27T06:41:03.953Z,9.05
2023-02-27T06:43:34.796Z,9.27
2023-02-27T06:46:01.816Z,8.55
2023-02-27T06:48:28.961Z,9.63
2023-02-27T06:50:56.841Z,9.65
2023-02-27T06:53:24.906Z,10.00
2023-02-27T06:55:52.874Z,10.25
2023-02-27T06:58:19.747Z,10.18
2023-02-27T07:00:46.660Z,9.88
2023-02-27T07:03:13.469Z,10.25
2023-02-27T07:05:41.884Z,9.52
2023-02-27T07:08:09.851Z,9.63
2023-02-27T07:10:36.811Z,9.98
2023-02-27T07:13:03.650Z,10.05
2023-02-27T07:15:30.627Z,9.80
2023-02-27T07:17:57.477Z,10.07
2023-02-27T07:20:24.370Z,10.00
2023-02-27T07:22:51.212Z,10.60
2023-02-27T07:25:18.153Z,11.27
2023-02-27T07:27:46.456Z,10.52
2023-02-27T07:30:13.785Z,9.88
2023-02-27T07:32:40.692Z,10.48
2023-02-27T07:35:08.669Z,10.63
2023-02-27T07:37:38.793Z,9.55
2023-02-27T07:40:09.191Z,9.63
2023-02-27T07:42:36.115Z,10.40
2023-02-27T07:45:03.066Z,9.85
2023-02-27T07:47:30.644Z,9.63
2023-02-27T07:49:57.578Z,10.43
2023-02-27T07:52:25.477Z,10.05
2023-02-27T07:54:52.560Z,10.52
2023-02-27T07:57:19.507Z,8.93
2023-02-27T07:59:49.323Z,10.43
2023-02-27T08:02:16.226Z,11.02
2023-02-27T08:04:43.239Z,10.32
2023-02-27T08:07:10.235Z,10.57
2023-02-27T08:09:37.080Z,9.73
2023-02-27T08:12:04.729Z,9.73
2023-02-27T08:14:31.727Z,10.68
2023-02-27T08:17:00.396Z,11.90
2023-02-27T08:19:27.526Z,9.60
2023-02-27T08:21:54.467Z,9.93
2023-02-27T08:24:21.928Z,10.18
2023-02-27T08:26:48.904Z,10.55
2023-02-27T08:29:17.048Z,9.73
2023-02-27T08:31:44.379Z,10.23
2023-02-27T08:34:14.002Z,10.10
2023-02-27T08:36:41.198Z,10.30
2023-02-27T08:39:08.996Z,9.88
2023-02-27T08:41:36.152Z,10.90
2023-02-27T08:44:03.173Z,10.60
2023-02-27T08:46:30.374Z,10.10
2023-02-27T08:48:57.401Z,11.40
2023-02-27T08:51:24.278Z,10.30
2023-02-27T08:53:51.157Z,10.70
2023-02-27T08:56:18.020Z,10.55
2023-02-27T08:58:44.779Z,10.77
2023-02-27T09:01:11.736Z,10.98
2023-02-27T09:03:38.571Z,10.98
2023-02-27T09:06:05.595Z,10.48
2023-02-27T09:08:32.684Z,10.63
2023-02-27T09:10:59.624Z,11.82
2023-02-27T09:13:26.995Z,11.80
2023-02-27T09:15:54.354Z,11.18
2023-02-27T09:18:22.109Z,11.23
2023-02-27T09:20:51.303Z,11.15
2023-02-27T09:23:18.643Z,11.07
2023-02-27T09:25:47.481Z,12.35
2023-02-27T09:28:14.398Z,11.75
2023-02-27T09:30:42.198Z,11.55
2023-02-27T09:33:09.266Z,11.85
2023-02-27T09:35:36.182Z,11.30
2023-02-27T09:38:03.602Z,11.15
2023-02-27T09:40:39.782Z,11.45
2023-02-27T09:43:17.177Z,10.70
2023-02-27T09:45:47.035Z,11.15
2023-02-27T09:48:47.249Z,12.07
2023-02-27T09:51:19.340Z,10.60
2023-02-27T09:53:49.400Z,11.73
2023-02-27T09:56:47.650Z,11.20
2023-02-27T09:59:42.636Z,10.77
2023-02-27T10:02:34.911Z,12.13
2023-02-27T10:05:31.381Z,10.27
2023-02-27T10:08:06.945Z,12.20
2023-02-27T10:10:44.761Z,11.02
2023-02-27T10:13:32.555Z,11.48
2023-02-27T10:16:00.422Z,10.73
2023-02-27T10:18:31.997Z,11.00
2023-02-27T10:21:03.107Z,10.90
2023-02-27T10:23:51.318Z,10.35
2023-02-27T10:26:30.172Z,12.35
2023-02-27T10:29:00.165Z,10.73
2023-02-27T10:31:31.958Z,12.35
2023-02-27T10:34:00.880Z,11.63
2023-02-27T10:36:34.449Z,11.60
2023-02-27T10:39:07.219Z,10.65
2023-02-27T10:41:36.380Z,10.93
2023-02-27T10:44:03.672Z,11.63
2023-02-27T10:46:34.764Z,12.10
2023-02-27T10:49:05.763Z,12.18
2023-02-27T10:51:38.460Z,11.18
2023-02-27T10:54:21.294Z,10.98
2023-02-27T10:56:52.342Z,12.18
2023-02-27T10:59:26.506Z,11.90
2023-02-27T11:01:57.625Z,11.60
2023-02-27T11:04:40.601Z,11.43
2023-02-27T11:07:16.069Z,11.75
2023-02-27T11:09:43.424Z,12.40
2023-02-27T11:12:24.567Z,12.07
2023-02-27T11:14:56.967Z,11.55
2023-02-27T11:17:32.433Z,11.55
2023-02-27T11:20:01.415Z,12.05
2023-02-27T11:22:31.114Z,10.48
2023-02-27T11:25:30.452Z,13.10
2023-02-27T11:28:21.427Z,11.90
2023-02-27T11:31:07.338Z,11.88
2023-02-27T11:33:38.439Z,11.65
2023-02-27T11:36:06.255Z,12.00
2023-02-27T11:38:34.900Z,12.18
2023-02-27T11:41:07.557Z,11.38
2023-02-27T11:43:42.927Z,10.85
2023-02-27T11:46:46.400Z,11.00
2023-02-27T11:49:33.837Z,13.05
2023-02-27T11:52:09.586Z,11.63
2023-02-27T11:54:45.617Z,11.70
2023-02-27T11:57:35.687Z,11.70
2023-02-27T12:00:08.569Z,12.13
2023-02-27T12:02:47.810Z,12.45
2023-02-27T12:05:36.565Z,12.07
2023-02-27T12:08:19.643Z,12.00
2023-02-27T12:11:12.881Z,11.57
2023-02-27T12:13:43.170Z,12.25
2023-02-27T12:16:38.556Z,12.05
2023-02-27T12:19:20.510Z,12.48
2023-02-27T12:22:19.020Z,11.93
2023-02-27T12:25:28.915Z,11.70
2023-02-27T12:28:31.619Z,11.45
2023-02-27T12:31:13.623Z,11.18
2023-02-27T12:33:57.662Z,12.85
2023-02-27T12:36:25.124Z,13.23
2023-02-27T12:38:52.325Z,13.32
2023-02-27T12:41:41.836Z,11.73
2023-02-27T12:44:33.431Z,13.82
2023-02-27T12:47:18.235Z,13.18
2023-02-27T12:49:53.736Z,14.40
2023-02-27T12:52:32.467Z,14.23
2023-02-27T12:55:14.877Z,13.32
2023-02-27T12:57:44.775Z,13.32
2023-02-27T13:00:20.523Z,12.98
2023-02-27T13:02:57.262Z,12.50
2023-02-27T13:05:32.707Z,12.07
2023-02-27T13:08:23.926Z,12.20
2023-02-27T13:11:04.898Z,12.50
2023-02-27T13:14:00.853Z,11.70
2023-02-27T13:16:37.316Z,12.27
2023-02-27T13:19:15.817Z,11.45
2023-02-27T13:21:55.045Z,11.70
2023-02-27T13:24:23.975Z,11.82
2023-02-27T13:27:03.494Z,11.93
2023-02-27T13:29:49.487Z,11.67
2023-02-27T13:32:16.416Z,13.38
2023-02-27T13:35:02.910Z,12.50
2023-02-27T13:37:56.688Z,13.45
2023-02-27T13:40:28.055Z,12.95
2023-02-27T13:42:58.982Z,12.20
2023-02-27T13:45:58.181Z,12.70
2023-02-27T13:48:33.999Z,13.23
2023-02-27T13:51:01.573Z,14.10
2023-02-27T13:53:30.073Z,12.75
2023-02-27T13:56:21.995Z,14.43
2023-02-27T13:58:50.260Z,14.10
2023-02-27T14:01:22.675Z,14.02
2023-02-27T14:03:56.759Z,14.27
2023-02-27T14:06:26.191Z,13.30
2023-02-27T14:09:08.789Z,14.40
2023-02-27T14:11:51.474Z,15.73
2023-02-27T14:14:50.345Z,13.70
2023-02-27T14:17:38.637Z,13.73
2023-02-27T14:20:18.058Z,14.40
2023-02-27T14:23:06.388Z,14.97
2023-02-27T14:25:34.878Z,13.65
2023-02-27T14:28:03.035Z,14.15
2023-02-27T14:30:43.523Z,15.02
2023-02-27T14:33:10.362Z,13.52
2023-02-27T14:35:38.197Z,15.00
2023-02-27T14:38:10.622Z,14.48
2023-02-27T14:40:48.347Z,15.15
2023-02-27T14:43:45.322Z,14.73
2023-02-27T14:46:36.183Z,13.38
2023-02-27T14:49:25.246Z,14.05
2023-02-27T14:51:53.932Z,14.68
2023-02-27T14:54:26.108Z,14.65
2023-02-27T14:57:01.111Z,15.15
2023-02-27T14:59:31.610Z,13.93
2023-02-27T15:02:02.286Z,13.27
2023-02-27T15:04:31.019Z,12.95
2023-02-27T15:06:59.744Z,13.30
2023-02-27T15:09:43.195Z,14.15
2023-02-27T15:12:17.740Z,14.45
2023-02-27T15:14:51.322Z,14.40
2023-02-27T15:17:24.701Z,14.75
2023-02-27T15:19:59.624Z,14.85
2023-02-27T15:22:39.326Z,15.15
2023-02-27T15:25:27.310Z,13.98
2023-02-27T15:27:57.867Z,14.35
2023-02-27T15:30:24.992Z,15.25
2023-02-27T15:32:54.773Z,14.30
2023-02-27T15:35:30.236Z,14.68
2023-02-27T15:38:01.067Z,14.45
2023-02-27T15:40:33.405Z,15.80
2023-02-27T15:43:01.519Z,14.18
2023-02-27T15:45:35.305Z,15.90
2023-02-27T15:48:03.229Z,15.20
2023-02-27T15:50:41.692Z,17.48
2023-02-27T15:53:08.522Z,20.23
2023-02-27T15:55:39.794Z,23.85
2023-02-27T15:58:27.773Z,24.52
2023-02-27T16:01:13.825Z,24.65
2023-02-27T16:03:48.284Z,23.42
2023-02-27T16:06:26.707Z,26.23
2023-02-27T16:09:00.679Z,26.45
2023-02-27T16:11:31.847Z,28.23
2023-02-27T16:13:59.441Z,27.13
2023-02-27T16:16:37.711Z,26.48
2023-02-27T16:19:28.129Z,26.77
2023-02-27T16:24:32.219Z,28.85
2023-02-27T16:27:00.499Z,28.50
2023-02-27T16:29:36.833Z,30.60
2023-02-27T16:32:04.544Z,31.67
2023-02-27T16:34:47.983Z,32.70
2023-02-27T16:37:24.266Z,33.33
2023-02-27T16:39:55.125Z,32.22
2023-02-27T16:42:22.335Z,34.08
2023-02-27T16:44:49.243Z,32.95
2023-02-27T16:47:16.250Z,30.52
2023-02-27T16:49:44.557Z,28.92
2023-02-27T16:52:12.300Z,33.75
2023-02-27T16:54:39.167Z,32.05
2023-02-27T16:57:06.105Z,34.15
2023-02-27T16:59:39.977Z,34.35
2023-02-27T17:02:16.185Z,34.65
2023-02-27T17:04:44.608Z,35.45
2023-02-27T17:07:16.231Z,35.03
2023-02-27T17:09:45.051Z,35.95
2023-02-27T17:12:12.049Z,37.03
2023-02-27T17:14:39.003Z,38.53
2023-02-27T17:17:07.047Z,37.58
2023-02-27T17:19:35.107Z,35.92
2023-02-27T17:22:02.238Z,37.65
2023-02-27T17:24:29.628Z,36.53
2023-02-27T17:26:56.464Z,38.15
2023-02-27T17:29:24.236Z,38.95
2023-02-27T17:31:51.753Z,37.38
2023-02-27T17:34:18.829Z,39.03
2023-02-27T17:36:45.998Z,40.63
2023-02-27T17:39:16.905Z,40.15
2023-02-27T17:41:44.444Z,40.70
2023-02-27T17:44:12.196Z,44.97
2023-02-27T17:46:40.171Z,43.97
2023-02-27T17:49:07.437Z,48.65
2023-02-27T17:51:34.358Z,45.15
2023-02-27T17:54:04.007Z,46.10
2023-02-27T17:56:31.509Z,44.45
2023-02-27T17:58:58.655Z,47.45
2023-02-27T18:01:26.612Z,39.83
2023-02-27T18:03:54.941Z,40.17
2023-02-27T18:06:22.935Z,43.63
2023-02-27T18:08:50.148Z,34.38
2023-02-27T18:11:20.766Z,38.40
2023-02-27T18:13:48.711Z,39.53
2023-02-27T18:16:15.672Z,37.85
2023-02-27T18:18:43.569Z,41.67
2023-02-27T18:21:14.400Z,37.22
2023-02-27T18:23:42.306Z,37.83
2023-02-27T18:26:27.142Z,40.47
2023-02-27T18:28:56.874Z,37.92
2023-02-27T18:31:27.974Z,38.47
2023-02-27T18:33:55.962Z,37.65
2023-02-27T18:36:23.114Z,35.20
2023-02-27T18:38:50.124Z,36.08
2023-02-27T18:41:17.294Z,35.20
2023-02-27T18:43:44.680Z,33.85
2023-02-27T18:46:12.975Z,31.30
2023-02-27T18:48:40.986Z,29.15
2023-02-27T18:51:12.412Z,27.42
2023-02-27T18:53:41.229Z,30.48
2023-02-27T18:56:09.335Z,29.63
2023-02-27T18:58:37.093Z,31.10
2023-02-27T19:01:05.260Z,28.83
2023-02-27T19:03:32.418Z,29.50
2023-02-27T19:05:59.501Z,30.52
2023-02-27T19:08:29.335Z,32.03
2023-02-27T19:10:58.178Z,30.67
2023-02-27T19:13:26.105Z,29.98
2023-02-27T19:15:53.664Z,31.55
2023-02-27T19:18:20.597Z,29.98
2023-02-27T19:20:47.824Z,28.45
2023-02-27T19:23:14.664Z,29.02
2023-02-27T19:25:46.797Z,28.80
2023-02-27T19:28:13.881Z,27.58
2023-02-27T19:30:40.966Z,28.67
2023-02-27T19:33:08.044Z,28.75
2023-02-27T19:35:35.089Z,28.02
2023-02-27T19:38:02.071Z,27.65
2023-02-27T19:40:29.019Z,28.73
2023-02-27T19:42:56.046Z,27.80
2023-02-27T19:45:23.582Z,30.08
2023-02-27T19:47:50.610Z,28.23
2023-02-27T19:50:18.002Z,27.77
2023-02-27T19:52:44.884Z,29.75
2023-02-27T19:55:12.183Z,28.52
2023-02-27T19:57:39.120Z,27.58
2023-02-27T20:00:08.578Z,27.35
2023-02-27T20:02:42.489Z,28.08
2023-02-27T20:05:12.224Z,27.08
2023-02-27T20:07:40.499Z,26.90
2023-02-27T20:10:07.608Z,26.52
2023-02-27T20:39:32.736Z,23.05
2023-02-27T20:41:59.749Z,25.13
2023-02-27T20:44:26.571Z,23.85
2023-02-27T20:46:53.590Z,23.83
2023-02-27T20:49:22.134Z,24.50
2023-02-27T20:51:49.129Z,24.60
2023-02-27T20:54:20.732Z,24.48
2023-02-27T20:56:51.997Z,26.50
2023-02-27T20:59:21.030Z,25.48
2023-02-27T21:01:51.797Z,24.42
2023-02-27T21:04:24.246Z,26.08
2023-02-27T21:06:51.848Z,24.50
2023-02-27T21:09:19.082Z,26.40
2023-02-27T21:11:46.092Z,24.63
2023-02-27T21:14:12.950Z,24.40
2023-02-27T21:16:40.728Z,25.65
2023-02-27T21:19:08.368Z,23.33
2023-02-27T21:21:36.491Z,24.67
2023-02-27T21:24:03.642Z,24.88
2023-02-27T21:26:35.461Z,25.45
2023-02-27T21:29:06.435Z,24.55
2023-02-27T21:31:35.593Z,22.15
2023-02-27T21:34:05.766Z,23.55
2023-02-27T21:36:38.407Z,23.85
2023-02-27T21:39:07.346Z,22.38
2023-02-27T21:41:38.107Z,21.45
2023-02-27T21:44:06.969Z,22.55
2023-02-27T21:46:34.503Z,21.65
2023-02-27T21:49:01.961Z,22.75
2023-02-27T21:51:40.063Z,20.48
2023-02-27T21:54:10.617Z,21.05
2023-02-27T21:56:38.743Z,20.40
2023-02-27T21:59:06.339Z,20.95
2023-02-27T22:01:34.036Z,20.13
2023-02-27T22:04:02.170Z,19.55
2023-02-27T22:06:34.027Z,20.65
2023-02-27T22:09:05.009Z,21.77
2023-02-27T22:11:34.306Z,21.45
2023-02-27T22:14:01.247Z,20.10
2023-02-27T22:16:28.190Z,21.63
2023-02-27T22:18:55.162Z,20.27
2023-02-27T22:21:25.375Z,20.70
2023-02-27T22:26:21.842Z,20.48
2023-02-27T22:28:48.787Z,19.45
2023-02-27T22:31:25.310Z,19.98
2023-02-27T22:33:55.681Z,20.40
2023-02-27T22:36:29.328Z,20.02
2023-02-27T22:38:57.006Z,19.85
2023-02-27T22:41:30.920Z,19.33
2023-02-27T22:44:00.118Z,19.58
2023-02-27T22:46:29.922Z,18.73
2023-02-27T22:49:18.251Z,18.30
2023-02-27T22:51:47.291Z,17.70
2023-02-27T22:54:16.458Z,19.33
2023-02-27T22:56:43.885Z,18.77
2023-02-27T22:59:11.030Z,18.10
2023-02-27T23:01:38.477Z,16.88
2023-02-27T23:04:11.500Z,18.08
2023-02-27T23:06:40.716Z,16.75
2023-02-27T23:09:10.951Z,16.20
2023-02-27T23:11:37.893Z,17.52
2023-02-27T23:14:04.727Z,16.88
2023-02-27T23:16:31.652Z,15.70
2023-02-27T23:18:59.888Z,16.63
2023-02-27T23:21:35.640Z,16.27
2023-02-27T23:24:07.306Z,17.13
2023-02-27T23:26:39.378Z,16.02
2023-02-27T23:29:07.098Z,16.90
2023-02-27T23:31:36.136Z,17.55
2023-02-27T23:34:06.019Z,16.80
2023-02-27T23:36:34.374Z,17.25
2023-02-27T23:39:03.085Z,18.52
2023-02-27T23:41:30.616Z,17.75
2023-02-27T23:44:16.235Z,17.92
2023-02-27T23:46:43.417Z,17.92
2023-02-27T23:49:11.290Z,17.77
2023-02-27T23:51:38.352Z,16.08
2023-02-27T23:54:05.271Z,16.83
2023-02-27T23:56:32.237Z,17.55
2023-02-27T23:59:02.076Z,17.98
